KSTJ/STJ METAR and TAF weather

Enter ICAO airport designator
Station Type Date Time Source
KSTJ METAR 2020/06/06 01:53 UTC NOAA

KSTJ 060153Z AUTO 13005KT 10SM CLR 28/21 A2991 RMK AO2 SLPNO T02830211 TSNO $


Station Type Date Time Source
KSTJ Decoded METAR 2020/06/06 01:53 UTC NOAA

ROSECRANS MEMORIAL AIRPORT, MO, United States (KSTJ) 39-46N 94-55W 247M
Jun 05, 2020 - 09:53 PM EDT / 2020.06.06 0153 UTC
Wind: from the SE (130 degrees) at 6 MPH (5 KT):0
Visibility: 10 mile(s):0
Sky conditions: clear
Temperature: 82.9 F (28.3 C)
Dew Point: 70.0 F (21.1 C)
Relative Humidity: 65%
Pressure (altimeter): 29.91 in. Hg (1012 hPa)
ob: KSTJ 060153Z AUTO 13005KT 10SM CLR 28/21 A2991 RMK AO2 SLPNO T02830211 TSNO
cycle: 2

Station Type Date Time Source
KSTJ TAF 2020/06/05 18:22 UTC NOAA

TAF KSTJ 051720Z 0518/0618 25005KT P6SM SCT200
FM060000 14003KT P6SM SKC
FM061200 15006KT P6SM FEW150

Example: see airport list